sensor_id;sensor_type;location;lat;lon;timestamp;P1;durP1;ratioP1;P2;durP2;ratioP2
24216;SDS011;12356;49.386;8.688;2023-02-03T00:01:20;7.30;;;2.80;;
24216;SDS011;12356;49.386;8.688;2023-02-03T00:03:52;6.65;;;2.60;;
24216;SDS011;12356;49.386;8.688;2023-02-03T00:06:22;8.68;;;2.90;;
24216;SDS011;12356;49.386;8.688;2023-02-03T00:08:56;7.97;;;2.70;;
24216;SDS011;12356;49.386;8.688;2023-02-03T00:11:31;8.23;;;2.90;;
24216;SDS011;12356;49.386;8.688;2023-02-03T00:14:01;9.00;;;3.15;;
24216;SDS011;12356;49.386;8.688;2023-02-03T00:19:04;10.57;;;3.17;;
24216;SDS011;12356;49.386;8.688;2023-02-03T00:21:35;10.25;;;3.25;;
24216;SDS011;12356;49.386;8.688;2023-02-03T00:24:05;9.30;;;3.00;;
24216;SDS011;12356;49.386;8.688;2023-02-03T00:26:39;7.55;;;2.90;;
24216;SDS011;12356;49.386;8.688;2023-02-03T00:29:13;9.48;;;3.40;;
24216;SDS011;12356;49.386;8.688;2023-02-03T00:31:44;7.60;;;3.20;;
24216;SDS011;12356;49.386;8.688;2023-02-03T00:34:14;8.95;;;3.20;;
24216;SDS011;12356;49.386;8.688;2023-02-03T00:36:45;11.20;;;3.42;;
24216;SDS011;12356;49.386;8.688;2023-02-03T00:39:17;5.72;;;3.30;;
24216;SDS011;12356;49.386;8.688;2023-02-03T00:41:47;6.95;;;3.33;;
24216;SDS011;12356;49.386;8.688;2023-02-03T00:44:18;10.65;;;3.15;;
24216;SDS011;12356;49.386;8.688;2023-02-03T00:46:48;6.38;;;3.10;;
24216;SDS011;12356;49.386;8.688;2023-02-03T00:49:19;9.43;;;3.42;;
24216;SDS011;12356;49.386;8.688;2023-02-03T00:51:50;8.55;;;3.50;;
24216;SDS011;12356;49.386;8.688;2023-02-03T00:54:21;8.15;;;3.63;;
24216;SDS011;12356;49.386;8.688;2023-02-03T00:56:51;6.90;;;3.20;;
24216;SDS011;12356;49.386;8.688;2023-02-03T00:59:22;8.55;;;3.53;;
24216;SDS011;12356;49.386;8.688;2023-02-03T01:01:52;8.73;;;3.20;;
24216;SDS011;12356;49.386;8.688;2023-02-03T01:04:23;9.32;;;3.45;;
24216;SDS011;12356;49.386;8.688;2023-02-03T01:06:53;6.90;;;3.13;;
24216;SDS011;12356;49.386;8.688;2023-02-03T01:11:57;8.73;;;3.33;;
24216;SDS011;12356;49.386;8.688;2023-02-03T01:14:27;8.20;;;3.38;;
24216;SDS011;12356;49.386;8.688;2023-02-03T01:16:59;8.70;;;3.25;;
24216;SDS011;12356;49.386;8.688;2023-02-03T01:19:30;6.68;;;3.45;;
24216;SDS011;12356;49.386;8.688;2023-02-03T01:22:00;11.38;;;3.30;;
24216;SDS011;12356;49.386;8.688;2023-02-03T01:24:31;7.32;;;3.35;;
24216;SDS011;12356;49.386;8.688;2023-02-03T01:27:01;10.80;;;3.60;;
24216;SDS011;12356;49.386;8.688;2023-02-03T01:29:32;9.65;;;3.28;;
24216;SDS011;12356;49.386;8.688;2023-02-03T01:32:02;8.82;;;3.50;;
24216;SDS011;12356;49.386;8.688;2023-02-03T01:34:33;7.93;;;3.50;;
24216;SDS011;12356;49.386;8.688;2023-02-03T01:37:04;7.55;;;3.50;;
24216;SDS011;12356;49.386;8.688;2023-02-03T01:39:34;8.10;;;3.28;;
24216;SDS011;12356;49.386;8.688;2023-02-03T01:42:05;7.13;;;3.33;;
24216;SDS011;12356;49.386;8.688;2023-02-03T01:44:39;5.72;;;3.40;;
24216;SDS011;12356;49.386;8.688;2023-02-03T01:50:16;8.05;;;3.33;;
24216;SDS011;12356;49.386;8.688;2023-02-03T01:52:52;5.68;;;3.13;;
24216;SDS011;12356;49.386;8.688;2023-02-03T01:55:27;6.38;;;3.00;;
24216;SDS011;12356;49.386;8.688;2023-02-03T02:00:54;5.82;;;2.95;;
24216;SDS011;12356;49.386;8.688;2023-02-03T02:03:30;7.33;;;2.97;;
24216;SDS011;12356;49.386;8.688;2023-02-03T02:06:25;8.82;;;3.30;;
24216;SDS011;12356;49.386;8.688;2023-02-03T02:08:56;5.32;;;2.88;;
24216;SDS011;12356;49.386;8.688;2023-02-03T02:11:29;6.65;;;2.83;;
24216;SDS011;12356;49.386;8.688;2023-02-03T02:14:00;6.32;;;2.65;;
24216;SDS011;12356;49.386;8.688;2023-02-03T02:19:27;7.55;;;3.13;;
24216;SDS011;12356;49.386;8.688;2023-02-03T02:22:21;4.20;;;2.60;;
24216;SDS011;12356;49.386;8.688;2023-02-03T02:25:01;4.88;;;2.75;;
24216;SDS011;12356;49.386;8.688;2023-02-03T02:39:01;5.28;;;2.90;;
24216;SDS011;12356;49.386;8.688;2023-02-03T02:41:56;6.38;;;3.08;;
24216;SDS011;12356;49.386;8.688;2023-02-03T02:45:04;4.68;;;2.78;;
24216;SDS011;12356;49.386;8.688;2023-02-03T02:47:33;6.38;;;2.80;;
24216;SDS011;12356;49.386;8.688;2023-02-03T02:50:04;6.28;;;3.20;;
24216;SDS011;12356;49.386;8.688;2023-02-03T02:52:36;5.60;;;2.90;;
24216;SDS011;12356;49.386;8.688;2023-02-03T02:55:13;6.13;;;3.13;;
24216;SDS011;12356;49.386;8.688;2023-02-03T02:57:50;6.05;;;3.33;;
24216;SDS011;12356;49.386;8.688;2023-02-03T03:00:23;5.90;;;3.00;;
24216;SDS011;12356;49.386;8.688;2023-02-03T03:02:53;5.95;;;3.38;;
24216;SDS011;12356;49.386;8.688;2023-02-03T03:05:24;4.88;;;3.10;;
24216;SDS011;12356;49.386;8.688;2023-02-03T03:07:57;6.43;;;3.17;;
24216;SDS011;12356;49.386;8.688;2023-02-03T03:10:33;4.47;;;3.10;;
24216;SDS011;12356;49.386;8.688;2023-02-03T03:13:07;4.68;;;2.83;;
24216;SDS011;12356;49.386;8.688;2023-02-03T03:15:42;4.65;;;3.00;;
24216;SDS011;12356;49.386;8.688;2023-02-03T03:21:02;5.47;;;2.95;;
24216;SDS011;12356;49.386;8.688;2023-02-03T03:23:37;5.20;;;2.97;;
24216;SDS011;12356;49.386;8.688;2023-02-03T03:26:13;6.03;;;2.92;;
24216;SDS011;12356;49.386;8.688;2023-02-03T03:28:48;5.97;;;3.00;;
24216;SDS011;12356;49.386;8.688;2023-02-03T03:31:22;5.45;;;2.88;;
24216;SDS011;12356;49.386;8.688;2023-02-03T03:33:53;4.25;;;2.80;;
24216;SDS011;12356;49.386;8.688;2023-02-03T03:36:25;7.00;;;3.22;;
24216;SDS011;12356;49.386;8.688;2023-02-03T03:39:10;3.45;;;2.90;;
24216;SDS011;12356;49.386;8.688;2023-02-03T03:42:06;4.32;;;3.08;;
24216;SDS011;12356;49.386;8.688;2023-02-03T03:44:52;4.85;;;2.95;;
24216;SDS011;12356;49.386;8.688;2023-02-03T03:50:05;6.38;;;3.17;;
24216;SDS011;12356;49.386;8.688;2023-02-03T03:52:39;5.30;;;3.10;;
24216;SDS011;12356;49.386;8.688;2023-02-03T03:55:13;3.92;;;2.92;;
24216;SDS011;12356;49.386;8.688;2023-02-03T04:00:31;4.40;;;2.90;;
24216;SDS011;12356;49.386;8.688;2023-02-03T04:03:06;4.15;;;3.10;;
24216;SDS011;12356;49.386;8.688;2023-02-03T04:05:44;6.32;;;3.22;;
24216;SDS011;12356;49.386;8.688;2023-02-03T04:08:15;9.52;;;3.45;;
24216;SDS011;12356;49.386;8.688;2023-02-03T04:10:46;4.95;;;2.97;;
24216;SDS011;12356;49.386;8.688;2023-02-03T04:13:16;9.18;;;3.10;;
24216;SDS011;12356;49.386;8.688;2023-02-03T04:15:49;4.93;;;3.10;;
24216;SDS011;12356;49.386;8.688;2023-02-03T04:18:19;6.72;;;3.20;;
24216;SDS011;12356;49.386;8.688;2023-02-03T04:20:50;6.03;;;3.05;;
24216;SDS011;12356;49.386;8.688;2023-02-03T04:23:20;7.13;;;3.58;;
24216;SDS011;12356;49.386;8.688;2023-02-03T04:25:51;5.88;;;3.17;;
24216;SDS011;12356;49.386;8.688;2023-02-03T04:28:21;4.97;;;3.70;;
24216;SDS011;12356;49.386;8.688;2023-02-03T04:30:52;5.93;;;3.15;;
24216;SDS011;12356;49.386;8.688;2023-02-03T04:33:22;5.93;;;3.33;;
24216;SDS011;12356;49.386;8.688;2023-02-03T04:35:53;5.75;;;3.10;;
24216;SDS011;12356;49.386;8.688;2023-02-03T04:38:23;6.80;;;3.42;;
24216;SDS011;12356;49.386;8.688;2023-02-03T04:40:54;7.20;;;3.10;;
24216;SDS011;12356;49.386;8.688;2023-02-03T04:43:24;6.03;;;3.75;;
24216;SDS011;12356;49.386;8.688;2023-02-03T04:45:55;6.63;;;3.35;;
24216;SDS011;12356;49.386;8.688;2023-02-03T04:51:05;5.90;;;3.35;;
24216;SDS011;12356;49.386;8.688;2023-02-03T04:53:37;6.57;;;3.60;;
24216;SDS011;12356;49.386;8.688;2023-02-03T04:56:07;5.13;;;3.55;;
24216;SDS011;12356;49.386;8.688;2023-02-03T04:58:38;7.68;;;3.95;;
24216;SDS011;12356;49.386;8.688;2023-02-03T05:01:08;8.15;;;4.15;;
24216;SDS011;12356;49.386;8.688;2023-02-03T05:03:39;6.85;;;3.70;;
24216;SDS011;12356;49.386;8.688;2023-02-03T05:06:10;6.30;;;3.97;;
24216;SDS011;12356;49.386;8.688;2023-02-03T05:08:40;5.68;;;3.63;;
24216;SDS011;12356;49.386;8.688;2023-02-03T05:11:11;6.95;;;3.60;;
24216;SDS011;12356;49.386;8.688;2023-02-03T05:13:41;7.13;;;3.80;;
24216;SDS011;12356;49.386;8.688;2023-02-03T05:16:12;8.07;;;3.80;;
24216;SDS011;12356;49.386;8.688;2023-02-03T05:18:42;7.05;;;3.95;;
24216;SDS011;12356;49.386;8.688;2023-02-03T05:21:13;7.50;;;4.00;;
24216;SDS011;12356;49.386;8.688;2023-02-03T05:23:44;6.47;;;3.88;;
24216;SDS011;12356;49.386;8.688;2023-02-03T05:26:14;7.90;;;3.78;;
24216;SDS011;12356;49.386;8.688;2023-02-03T05:28:45;5.88;;;3.65;;
24216;SDS011;12356;49.386;8.688;2023-02-03T05:31:16;8.95;;;3.80;;
24216;SDS011;12356;49.386;8.688;2023-02-03T05:33:46;8.30;;;3.95;;
24216;SDS011;12356;49.386;8.688;2023-02-03T05:36:17;8.23;;;4.00;;
24216;SDS011;12356;49.386;8.688;2023-02-03T05:38:47;5.43;;;3.40;;
24216;SDS011;12356;49.386;8.688;2023-02-03T05:41:18;9.30;;;3.92;;
24216;SDS011;12356;49.386;8.688;2023-02-03T05:44:08;6.18;;;3.75;;
24216;SDS011;12356;49.386;8.688;2023-02-03T05:46:39;6.57;;;3.78;;
24216;SDS011;12356;49.386;8.688;2023-02-03T05:49:09;6.00;;;3.72;;
24216;SDS011;12356;49.386;8.688;2023-02-03T05:51:40;5.38;;;3.72;;
24216;SDS011;12356;49.386;8.688;2023-02-03T05:54:11;6.18;;;3.75;;
24216;SDS011;12356;49.386;8.688;2023-02-03T05:56:42;5.72;;;3.75;;
24216;SDS011;12356;49.386;8.688;2023-02-03T05:59:13;6.13;;;4.20;;
24216;SDS011;12356;49.386;8.688;2023-02-03T06:01:43;6.50;;;4.07;;
24216;SDS011;12356;49.386;8.688;2023-02-03T06:04:14;6.78;;;3.90;;
24216;SDS011;12356;49.386;8.688;2023-02-03T06:06:44;4.43;;;3.60;;
24216;SDS011;12356;49.386;8.688;2023-02-03T06:09:16;5.53;;;3.80;;
24216;SDS011;12356;49.386;8.688;2023-02-03T06:11:47;7.35;;;4.35;;
24216;SDS011;12356;49.386;8.688;2023-02-03T06:14:18;6.60;;;4.07;;
24216;SDS011;12356;49.386;8.688;2023-02-03T06:16:48;9.80;;;4.60;;
24216;SDS011;12356;49.386;8.688;2023-02-03T06:19:19;6.70;;;4.47;;
24216;SDS011;12356;49.386;8.688;2023-02-03T06:21:49;7.18;;;4.40;;
24216;SDS011;12356;49.386;8.688;2023-02-03T06:24:20;8.70;;;4.90;;
24216;SDS011;12356;49.386;8.688;2023-02-03T06:26:50;8.13;;;4.50;;
24216;SDS011;12356;49.386;8.688;2023-02-03T06:29:21;7.88;;;4.30;;
24216;SDS011;12356;49.386;8.688;2023-02-03T06:31:51;7.07;;;4.18;;
24216;SDS011;12356;49.386;8.688;2023-02-03T06:34:22;7.57;;;4.30;;
24216;SDS011;12356;49.386;8.688;2023-02-03T06:36:52;7.50;;;4.50;;
24216;SDS011;12356;49.386;8.688;2023-02-03T06:39:23;7.18;;;4.78;;
24216;SDS011;12356;49.386;8.688;2023-02-03T06:41:53;8.10;;;4.40;;
24216;SDS011;12356;49.386;8.688;2023-02-03T06:44:25;7.03;;;4.20;;
24216;SDS011;12356;49.386;8.688;2023-02-03T06:46:56;7.63;;;4.53;;
24216;SDS011;12356;49.386;8.688;2023-02-03T06:49:28;9.00;;;4.45;;
24216;SDS011;12356;49.386;8.688;2023-02-03T06:51:58;8.60;;;4.38;;
24216;SDS011;12356;49.386;8.688;2023-02-03T06:54:29;8.57;;;4.20;;
24216;SDS011;12356;49.386;8.688;2023-02-03T06:56:59;5.22;;;3.90;;
24216;SDS011;12356;49.386;8.688;2023-02-03T06:59:30;8.93;;;4.70;;
24216;SDS011;12356;49.386;8.688;2023-02-03T07:02:01;7.90;;;4.65;;
24216;SDS011;12356;49.386;8.688;2023-02-03T07:04:31;8.73;;;4.38;;
24216;SDS011;12356;49.386;8.688;2023-02-03T07:07:02;9.85;;;4.68;;
24216;SDS011;12356;49.386;8.688;2023-02-03T07:09:32;6.45;;;4.18;;
24216;SDS011;12356;49.386;8.688;2023-02-03T07:12:03;9.18;;;4.85;;
24216;SDS011;12356;49.386;8.688;2023-02-03T07:14:34;10.40;;;4.90;;
24216;SDS011;12356;49.386;8.688;2023-02-03T07:17:05;8.32;;;4.30;;
24216;SDS011;12356;49.386;8.688;2023-02-03T07:19:36;7.82;;;4.45;;
24216;SDS011;12356;49.386;8.688;2023-02-03T07:22:06;7.20;;;4.50;;
24216;SDS011;12356;49.386;8.688;2023-02-03T07:24:39;7.78;;;3.72;;
24216;SDS011;12356;49.386;8.688;2023-02-03T07:27:09;10.60;;;4.30;;
24216;SDS011;12356;49.386;8.688;2023-02-03T07:29:40;6.47;;;4.13;;
24216;SDS011;12356;49.386;8.688;2023-02-03T07:32:10;8.10;;;4.30;;
24216;SDS011;12356;49.386;8.688;2023-02-03T07:34:41;8.18;;;4.28;;
24216;SDS011;12356;49.386;8.688;2023-02-03T07:37:11;5.93;;;4.15;;
24216;SDS011;12356;49.386;8.688;2023-02-03T07:39:42;8.45;;;4.47;;
24216;SDS011;12356;49.386;8.688;2023-02-03T07:42:13;10.18;;;4.53;;
24216;SDS011;12356;49.386;8.688;2023-02-03T07:44:43;8.23;;;4.38;;
24216;SDS011;12356;49.386;8.688;2023-02-03T07:47:14;7.65;;;4.00;;
24216;SDS011;12356;49.386;8.688;2023-02-03T07:49:44;5.93;;;3.90;;
24216;SDS011;12356;49.386;8.688;2023-02-03T07:52:15;7.95;;;4.38;;
24216;SDS011;12356;49.386;8.688;2023-02-03T07:54:45;9.40;;;4.03;;
24216;SDS011;12356;49.386;8.688;2023-02-03T07:57:16;7.65;;;4.13;;
24216;SDS011;12356;49.386;8.688;2023-02-03T07:59:46;7.15;;;4.05;;
24216;SDS011;12356;49.386;8.688;2023-02-03T08:02:17;7.25;;;3.78;;
24216;SDS011;12356;49.386;8.688;2023-02-03T08:04:47;5.32;;;3.60;;
24216;SDS011;12356;49.386;8.688;2023-02-03T08:07:18;6.05;;;3.40;;
24216;SDS011;12356;49.386;8.688;2023-02-03T08:09:48;6.60;;;3.53;;
24216;SDS011;12356;49.386;8.688;2023-02-03T08:12:19;7.32;;;3.70;;
24216;SDS011;12356;49.386;8.688;2023-02-03T08:14:50;5.15;;;3.45;;
24216;SDS011;12356;49.386;8.688;2023-02-03T08:17:20;7.80;;;3.80;;
24216;SDS011;12356;49.386;8.688;2023-02-03T08:19:51;3.58;;;3.00;;
24216;SDS011;12356;49.386;8.688;2023-02-03T08:22:22;6.20;;;3.60;;
24216;SDS011;12356;49.386;8.688;2023-02-03T08:24:52;6.72;;;3.60;;
24216;SDS011;12356;49.386;8.688;2023-02-03T08:27:23;6.97;;;3.60;;
24216;SDS011;12356;49.386;8.688;2023-02-03T08:29:54;4.38;;;3.00;;
24216;SDS011;12356;49.386;8.688;2023-02-03T08:32:25;6.90;;;3.70;;
24216;SDS011;12356;49.386;8.688;2023-02-03T08:34:55;6.22;;;3.28;;
24216;SDS011;12356;49.386;8.688;2023-02-03T08:37:26;6.18;;;3.35;;
24216;SDS011;12356;49.386;8.688;2023-02-03T08:39:59;5.90;;;3.58;;
24216;SDS011;12356;49.386;8.688;2023-02-03T08:42:29;5.85;;;3.42;;
24216;SDS011;12356;49.386;8.688;2023-02-03T08:45:00;6.10;;;3.30;;
24216;SDS011;12356;49.386;8.688;2023-02-03T08:47:30;7.25;;;3.30;;
24216;SDS011;12356;49.386;8.688;2023-02-03T08:50:02;8.25;;;3.42;;
24216;SDS011;12356;49.386;8.688;2023-02-03T08:55:04;5.68;;;3.47;;
24216;SDS011;12356;49.386;8.688;2023-02-03T08:57:35;5.63;;;3.10;;
24216;SDS011;12356;49.386;8.688;2023-02-03T09:00:07;5.80;;;3.30;;
24216;SDS011;12356;49.386;8.688;2023-02-03T09:02:38;6.57;;;3.50;;
24216;SDS011;12356;49.386;8.688;2023-02-03T09:05:09;15.55;;;3.50;;
24216;SDS011;12356;49.386;8.688;2023-02-03T09:07:39;4.68;;;3.20;;
24216;SDS011;12356;49.386;8.688;2023-02-03T09:10:10;5.65;;;3.08;;
24216;SDS011;12356;49.386;8.688;2023-02-03T09:12:41;3.90;;;3.13;;
24216;SDS011;12356;49.386;8.688;2023-02-03T09:15:11;5.85;;;3.50;;
24216;SDS011;12356;49.386;8.688;2023-02-03T09:17:42;5.03;;;3.22;;
24216;SDS011;12356;49.386;8.688;2023-02-03T09:20:12;4.45;;;3.20;;
24216;SDS011;12356;49.386;8.688;2023-02-03T09:22:43;5.28;;;3.08;;
24216;SDS011;12356;49.386;8.688;2023-02-03T09:25:14;4.78;;;2.92;;
24216;SDS011;12356;49.386;8.688;2023-02-03T09:27:45;4.88;;;2.92;;
24216;SDS011;12356;49.386;8.688;2023-02-03T09:30:16;5.13;;;2.97;;
24216;SDS011;12356;49.386;8.688;2023-02-03T09:32:46;4.50;;;2.90;;
24216;SDS011;12356;49.386;8.688;2023-02-03T09:35:23;4.32;;;3.33;;
24216;SDS011;12356;49.386;8.688;2023-02-03T09:37:56;4.93;;;2.97;;
24216;SDS011;12356;49.386;8.688;2023-02-03T09:40:29;4.45;;;2.97;;
24216;SDS011;12356;49.386;8.688;2023-02-03T09:46:02;4.75;;;2.75;;
24216;SDS011;12356;49.386;8.688;2023-02-03T09:48:56;7.53;;;2.53;;
24216;SDS011;12356;49.386;8.688;2023-02-03T09:51:54;4.13;;;2.33;;
24216;SDS011;12356;49.386;8.688;2023-02-03T09:54:35;5.82;;;2.35;;
24216;SDS011;12356;49.386;8.688;2023-02-03T09:57:13;4.07;;;2.30;;
24216;SDS011;12356;49.386;8.688;2023-02-03T09:59:50;4.00;;;2.70;;
24216;SDS011;12356;49.386;8.688;2023-02-03T10:08:21;4.07;;;2.90;;
24216;SDS011;12356;49.386;8.688;2023-02-03T10:11:00;3.10;;;2.40;;
24216;SDS011;12356;49.386;8.688;2023-02-03T10:16:27;4.75;;;2.78;;
24216;SDS011;12356;49.386;8.688;2023-02-03T10:19:08;5.80;;;2.88;;
24216;SDS011;12356;49.386;8.688;2023-02-03T10:21:49;3.45;;;2.78;;
24216;SDS011;12356;49.386;8.688;2023-02-03T10:24:25;4.18;;;2.70;;
24216;SDS011;12356;49.386;8.688;2023-02-03T10:29:44;5.25;;;2.58;;
24216;SDS011;12356;49.386;8.688;2023-02-03T10:32:23;4.88;;;2.40;;
24216;SDS011;12356;49.386;8.688;2023-02-03T10:34:56;4.63;;;2.33;;
24216;SDS011;12356;49.386;8.688;2023-02-03T10:40:04;5.45;;;2.78;;
24216;SDS011;12356;49.386;8.688;2023-02-03T10:42:34;5.40;;;2.60;;
24216;SDS011;12356;49.386;8.688;2023-02-03T10:45:24;4.10;;;2.33;;
24216;SDS011;12356;49.386;8.688;2023-02-03T10:47:54;3.58;;;2.47;;
24216;SDS011;12356;49.386;8.688;2023-02-03T10:50:25;5.28;;;2.70;;
24216;SDS011;12356;49.386;8.688;2023-02-03T10:53:19;3.95;;;2.35;;
24216;SDS011;12356;49.386;8.688;2023-02-03T10:56:12;8.88;;;2.75;;
24216;SDS011;12356;49.386;8.688;2023-02-03T10:58:53;5.30;;;2.78;;
24216;SDS011;12356;49.386;8.688;2023-02-03T11:01:46;3.50;;;2.67;;
24216;SDS011;12356;49.386;8.688;2023-02-03T11:07:00;5.43;;;2.58;;
24216;SDS011;12356;49.386;8.688;2023-02-03T11:09:38;3.40;;;2.22;;
24216;SDS011;12356;49.386;8.688;2023-02-03T11:12:12;2.70;;;2.17;;
24216;SDS011;12356;49.386;8.688;2023-02-03T11:14:44;3.70;;;2.20;;
24216;SDS011;12356;49.386;8.688;2023-02-03T11:17:21;4.32;;;2.40;;
24216;SDS011;12356;49.386;8.688;2023-02-03T11:19:58;3.90;;;2.20;;
24216;SDS011;12356;49.386;8.688;2023-02-03T11:22:41;8.38;;;2.42;;
24216;SDS011;12356;49.386;8.688;2023-02-03T11:25:17;3.45;;;2.17;;
24216;SDS011;12356;49.386;8.688;2023-02-03T11:27:51;6.10;;;2.60;;
24216;SDS011;12356;49.386;8.688;2023-02-03T11:30:24;4.20;;;2.40;;
24216;SDS011;12356;49.386;8.688;2023-02-03T11:33:01;4.70;;;2.20;;
24216;SDS011;12356;49.386;8.688;2023-02-03T11:35:32;3.45;;;2.30;;
24216;SDS011;12356;49.386;8.688;2023-02-03T11:38:08;6.78;;;2.80;;
24216;SDS011;12356;49.386;8.688;2023-02-03T11:40:59;3.72;;;2.33;;
24216;SDS011;12356;49.386;8.688;2023-02-03T11:43:30;4.28;;;2.40;;
24216;SDS011;12356;49.386;8.688;2023-02-03T11:46:02;4.78;;;2.22;;
24216;SDS011;12356;49.386;8.688;2023-02-03T12:17:08;1.35;;;1.10;;
24216;SDS011;12356;49.386;8.688;2023-02-03T12:28:30;1.33;;;1.10;;
24216;SDS011;12356;49.386;8.688;2023-02-03T12:31:15;1.65;;;1.05;;
24216;SDS011;12356;49.386;8.688;2023-02-03T12:34:03;1.38;;;1.17;;
24216;SDS011;12356;49.386;8.688;2023-02-03T12:36:39;1.90;;;1.30;;
24216;SDS011;12356;49.386;8.688;2023-02-03T12:39:20;2.00;;;1.23;;
24216;SDS011;12356;49.386;8.688;2023-02-03T12:41:57;1.55;;;1.05;;
24216;SDS011;12356;49.386;8.688;2023-02-03T12:44:41;1.73;;;1.23;;
24216;SDS011;12356;49.386;8.688;2023-02-03T12:47:25;1.58;;;1.10;;
24216;SDS011;12356;49.386;8.688;2023-02-03T12:55:45;1.55;;;1.13;;
24216;SDS011;12356;49.386;8.688;2023-02-03T12:58:22;1.35;;;1.15;;
24216;SDS011;12356;49.386;8.688;2023-02-03T13:01:11;1.73;;;1.13;;
24216;SDS011;12356;49.386;8.688;2023-02-03T13:04:05;1.50;;;1.00;;
24216;SDS011;12356;49.386;8.688;2023-02-03T13:09:32;2.28;;;1.30;;
24216;SDS011;12356;49.386;8.688;2023-02-03T13:12:11;0.80;;;0.80;;
24216;SDS011;12356;49.386;8.688;2023-02-03T13:14:53;1.17;;;0.90;;
24216;SDS011;12356;49.386;8.688;2023-02-03T13:17:54;1.77;;;1.00;;
24216;SDS011;12356;49.386;8.688;2023-02-03T13:20:27;2.10;;;0.82;;
24216;SDS011;12356;49.386;8.688;2023-02-03T13:23:03;1.52;;;0.90;;
24216;SDS011;12356;49.386;8.688;2023-02-03T13:37:17;1.25;;;0.80;;
24216;SDS011;12356;49.386;8.688;2023-02-03T13:40:13;1.00;;;0.90;;
24216;SDS011;12356;49.386;8.688;2023-02-03T13:42:55;2.15;;;1.00;;
24216;SDS011;12356;49.386;8.688;2023-02-03T13:48:35;1.40;;;1.20;;
24216;SDS011;12356;49.386;8.688;2023-02-03T13:53:49;1.88;;;1.10;;
24216;SDS011;12356;49.386;8.688;2023-02-03T13:56:24;3.53;;;1.40;;
24216;SDS011;12356;49.386;8.688;2023-02-03T13:59:05;1.67;;;1.13;;
24216;SDS011;12356;49.386;8.688;2023-02-03T14:01:42;2.25;;;0.90;;
24216;SDS011;12356;49.386;8.688;2023-02-03T14:06:56;2.65;;;1.23;;
24216;SDS011;12356;49.386;8.688;2023-02-03T14:12:16;1.98;;;1.10;;
24216;SDS011;12356;49.386;8.688;2023-02-03T14:15:21;2.35;;;1.10;;
24216;SDS011;12356;49.386;8.688;2023-02-03T14:21:11;2.30;;;0.98;;
24216;SDS011;12356;49.386;8.688;2023-02-03T14:23:47;1.30;;;1.00;;
24216;SDS011;12356;49.386;8.688;2023-02-03T14:26:32;0.85;;;0.75;;
24216;SDS011;12356;49.386;8.688;2023-02-03T14:29:08;1.90;;;0.70;;
24216;SDS011;12356;49.386;8.688;2023-02-03T14:31:59;2.95;;;0.80;;
24216;SDS011;12356;49.386;8.688;2023-02-03T14:37:16;1.02;;;0.80;;
24216;SDS011;12356;49.386;8.688;2023-02-03T14:39:56;1.13;;;0.90;;
24216;SDS011;12356;49.386;8.688;2023-02-03T14:42:56;1.80;;;0.82;;
24216;SDS011;12356;49.386;8.688;2023-02-03T14:45:35;2.22;;;0.80;;
24216;SDS011;12356;49.386;8.688;2023-02-03T14:51:34;1.27;;;0.80;;
24216;SDS011;12356;49.386;8.688;2023-02-03T14:54:16;0.90;;;0.70;;
24216;SDS011;12356;49.386;8.688;2023-02-03T14:57:04;1.02;;;0.90;;
24216;SDS011;12356;49.386;8.688;2023-02-03T14:59:54;1.00;;;0.80;;
24216;SDS011;12356;49.386;8.688;2023-02-03T15:02:34;1.10;;;0.80;;
24216;SDS011;12356;49.386;8.688;2023-02-03T15:07:42;1.35;;;0.93;;
24216;SDS011;12356;49.386;8.688;2023-02-03T15:10:19;2.00;;;0.90;;
24216;SDS011;12356;49.386;8.688;2023-02-03T15:12:56;1.23;;;1.10;;
24216;SDS011;12356;49.386;8.688;2023-02-03T15:15:28;3.30;;;1.02;;
24216;SDS011;12356;49.386;8.688;2023-02-03T15:18:18;1.33;;;1.00;;
24216;SDS011;12356;49.386;8.688;2023-02-03T15:20:52;1.25;;;0.93;;
24216;SDS011;12356;49.386;8.688;2023-02-03T15:23:28;2.78;;;0.95;;
24216;SDS011;12356;49.386;8.688;2023-02-03T15:26:09;0.98;;;0.80;;
24216;SDS011;12356;49.386;8.688;2023-02-03T15:28:42;1.02;;;0.93;;
24216;SDS011;12356;49.386;8.688;2023-02-03T15:31:16;1.00;;;0.90;;
24216;SDS011;12356;49.386;8.688;2023-02-03T15:36:58;1.40;;;0.90;;
24216;SDS011;12356;49.386;8.688;2023-02-03T15:39:39;1.27;;;0.90;;
24216;SDS011;12356;49.386;8.688;2023-02-03T15:42:33;2.95;;;0.90;;
24216;SDS011;12356;49.386;8.688;2023-02-03T15:50:37;1.20;;;0.77;;
24216;SDS011;12356;49.386;8.688;2023-02-03T15:53:20;1.80;;;0.80;;
24216;SDS011;12356;49.386;8.688;2023-02-03T15:56:20;0.95;;;0.85;;
24216;SDS011;12356;49.386;8.688;2023-02-03T15:59:04;1.88;;;1.05;;
24216;SDS011;12356;49.386;8.688;2023-02-03T16:04:18;1.80;;;0.80;;
24216;SDS011;12356;49.386;8.688;2023-02-03T16:06:50;1.00;;;0.90;;
24216;SDS011;12356;49.386;8.688;2023-02-03T16:12:04;1.42;;;0.88;;
24216;SDS011;12356;49.386;8.688;2023-02-03T16:14:44;2.20;;;0.70;;
24216;SDS011;12356;49.386;8.688;2023-02-03T16:17:26;0.88;;;0.80;;
24216;SDS011;12356;49.386;8.688;2023-02-03T16:22:43;1.60;;;1.02;;
24216;SDS011;12356;49.386;8.688;2023-02-03T16:25:22;1.13;;;1.00;;
24216;SDS011;12356;49.386;8.688;2023-02-03T16:30:53;1.55;;;1.08;;
24216;SDS011;12356;49.386;8.688;2023-02-03T16:33:45;1.65;;;1.20;;
24216;SDS011;12356;49.386;8.688;2023-02-03T16:36:39;4.43;;;1.25;;
24216;SDS011;12356;49.386;8.688;2023-02-03T16:39:29;1.80;;;1.35;;
24216;SDS011;12356;49.386;8.688;2023-02-03T16:42:19;1.40;;;1.20;;
24216;SDS011;12356;49.386;8.688;2023-02-03T16:45:13;1.48;;;1.23;;
24216;SDS011;12356;49.386;8.688;2023-02-03T16:48:04;1.80;;;1.27;;
24216;SDS011;12356;49.386;8.688;2023-02-03T16:50:54;3.65;;;1.30;;
24216;SDS011;12356;49.386;8.688;2023-02-03T16:53:29;2.97;;;1.40;;
24216;SDS011;12356;49.386;8.688;2023-02-03T16:56:01;2.50;;;1.67;;
24216;SDS011;12356;49.386;8.688;2023-02-03T17:01:04;1.73;;;1.33;;
24216;SDS011;12356;49.386;8.688;2023-02-03T17:03:37;4.05;;;1.67;;
24216;SDS011;12356;49.386;8.688;2023-02-03T17:06:08;2.67;;;1.40;;
24216;SDS011;12356;49.386;8.688;2023-02-03T17:08:40;7.68;;;1.80;;
24216;SDS011;12356;49.386;8.688;2023-02-03T17:11:15;1.67;;;1.20;;
24216;SDS011;12356;49.386;8.688;2023-02-03T17:13:48;2.25;;;1.45;;
24216;SDS011;12356;49.386;8.688;2023-02-03T17:16:20;2.10;;;1.15;;
24216;SDS011;12356;49.386;8.688;2023-02-03T17:18:53;1.40;;;1.17;;
24216;SDS011;12356;49.386;8.688;2023-02-03T17:21:24;1.77;;;1.30;;
24216;SDS011;12356;49.386;8.688;2023-02-03T17:26:28;2.33;;;1.35;;
24216;SDS011;12356;49.386;8.688;2023-02-03T17:28:58;1.23;;;1.10;;
24216;SDS011;12356;49.386;8.688;2023-02-03T17:31:32;1.80;;;1.20;;
24216;SDS011;12356;49.386;8.688;2023-02-03T17:34:02;2.38;;;1.50;;
24216;SDS011;12356;49.386;8.688;2023-02-03T17:36:33;1.75;;;1.30;;
24216;SDS011;12356;49.386;8.688;2023-02-03T17:39:04;2.05;;;1.20;;
24216;SDS011;12356;49.386;8.688;2023-02-03T17:41:34;2.72;;;1.40;;
24216;SDS011;12356;49.386;8.688;2023-02-03T17:44:06;1.50;;;1.23;;
24216;SDS011;12356;49.386;8.688;2023-02-03T17:46:36;1.17;;;1.08;;
24216;SDS011;12356;49.386;8.688;2023-02-03T17:49:07;1.20;;;1.00;;
24216;SDS011;12356;49.386;8.688;2023-02-03T17:51:38;1.50;;;1.27;;
24216;SDS011;12356;49.386;8.688;2023-02-03T17:54:09;1.40;;;1.15;;
24216;SDS011;12356;49.386;8.688;2023-02-03T17:56:40;1.73;;;1.33;;
24216;SDS011;12356;49.386;8.688;2023-02-03T17:59:11;2.05;;;1.20;;
24216;SDS011;12356;49.386;8.688;2023-02-03T18:01:42;1.80;;;1.40;;
24216;SDS011;12356;49.386;8.688;2023-02-03T18:04:12;1.65;;;1.40;;
24216;SDS011;12356;49.386;8.688;2023-02-03T18:06:43;2.03;;;1.60;;
24216;SDS011;12356;49.386;8.688;2023-02-03T18:09:15;3.55;;;1.70;;
24216;SDS011;12356;49.386;8.688;2023-02-03T18:11:45;3.35;;;1.90;;
24216;SDS011;12356;49.386;8.688;2023-02-03T18:14:16;1.80;;;1.35;;
24216;SDS011;12356;49.386;8.688;2023-02-03T18:16:47;2.97;;;2.10;;